MV Sea Wolf — WCW6738 — position and weather

sailwx.info

Track history (hours):
 
Tides and Currents Weather Stations Pressure Air Temp Water Temp Dewpoint Dewpoint Depression Visibility Wind Speed Wind Dir Waves Ship Positions

MV Sea Wolf

Owner: SEA WOLF MARINE TOWING & TRANSPORTATION, Bayonne, NJ. More information available from US FCC via Universal Licensing System and Coast Guard Vessel Documentation Center.

Last reported at 2016-May-29 13:34 UTC. Time now 2016-May-29 13:32 UTC.
Position N 40°41' W 074°05'.

Length 66 m; draft 10 m.

MMSI: 367002350.

Date/timePositionNaut miles runAvg speedWind from/ knotsBaromVisibWave heightAir tempDewpointWater temp
2016-May-29 13:34N 40°41' W 074°05'0 0.0
2016-May-29 12:34N 40°41' W 074°05'0 0.0
2016-May-29 11:33N 40°41' W 074°05'0 0.0
2016-May-29 10:32N 40°41' W 074°05'0 0.0
2016-May-29 09:33N 40°41' W 074°05'0 0.0
2016-May-29 08:31N 40°41' W 074°05'0 0.0
2016-May-29 07:34N 40°41' W 074°05'0 0.0
2016-May-29 06:34N 40°41' W 074°05'0 0.4
2016-May-29 05:33N 40°41' W 074°04'5 5.5
2016-May-29 04:34N 40°39' W 074°11'1 0.8
2016-May-29 03:12N 40°38' W 074°12'5 7.3
2016-May-29 02:33N 40°39' W 074°06'4 4.0
2016-May-29 01:34N 40°40' W 074°01'5 5.3
2016-May-29 00:33N 40°44' W 073°57'1 1.5
2016-May-28 23:34N 40°43' W 073°58'4 4.4
2016-May-28 22:33N 40°41' W 074°03'1 1.3
2016-May-28 21:33N 40°41' W 074°05'0 0.0
2016-May-28 20:33N 40°41' W 074°05'0 0.0
2016-May-28 19:34N 40°41' W 074°05'0 0.0
2016-May-28 18:34N 40°41' W 074°05'0 0.0
2016-May-28 17:33N 40°41' W 074°05'0 0.0
2016-May-28 16:33N 40°41' W 074°05'0 0.0
2016-May-28 15:34N 40°41' W 074°05'0 0.0
2016-May-28 14:33N 40°41' W 074°05'0 0.0
2016-May-28 13:34N 40°41' W 074°05'0 0.0
2016-May-28 12:33N 40°41' W 074°05'0 0.0
2016-May-28 11:33N 40°41' W 074°05'0 0.0
2016-May-28 10:33N 40°41' W 074°05'0 0.0
2016-May-28 09:33N 40°41' W 074°05'0 0.0
2016-May-28 08:33N 40°41' W 074°05'0 0.0
2016-May-28 07:33N 40°41' W 074°05'0 0.0
2016-May-28 06:33N 40°41' W 074°05'0 0.0
2016-May-28 05:33N 40°41' W 074°05'3 3.2
2016-May-28 04:33N 40°42' W 074°00'4 3.7
2016-May-28 03:33N 40°44' W 073°57'5 5.4
2016-May-28 02:33N 40°40' W 074°01'3 2.6
2016-May-28 01:33N 40°41' W 074°04'0 0.2
2016-May-28 00:33N 40°41' W 074°05'0 0.0
2016-May-27 23:33N 40°41' W 074°05'0 0.0
2016-May-27 22:33N 40°41' W 074°05'0 0.0
2016-May-27 21:33N 40°41' W 074°05'0 0.0
2016-May-27 20:33N 40°41' W 074°05'0 0.0
2016-May-27 19:33N 40°41' W 074°05'0 0.0
2016-May-27 18:33N 40°41' W 074°05'0 0.0
2016-May-27 17:33N 40°41' W 074°05'0 0.0
2016-May-27 16:33N 40°41' W 074°05'0 0.0
2016-May-27 15:33N 40°41' W 074°05'3 2.6
2016-May-27 14:33N 40°40' W 074°02'2 2.1
2016-May-27 13:33N 40°42' W 074°00'4 3.7
2016-May-27 12:31N 40°44' W 073°57'4 4.4
2016-May-27 11:33N 40°42' W 074°01'3 2.7
2016-May-27 10:33N 40°41' W 074°05'0 0.0
2016-May-27 09:33N 40°41' W 074°05'0 0.0
2016-May-27 08:33N 40°41' W 074°05'0 0.0
2016-May-27 07:33N 40°41' W 074°05'0 0.0
2016-May-27 06:33N 40°41' W 074°05'0 0.0
2016-May-27 05:33N 40°41' W 074°05'0 0.0
2016-May-27 04:33N 40°41' W 074°05'0 0.0
2016-May-27 03:33N 40°41' W 074°05'0 0.0
2016-May-27 02:33N 40°41' W 074°05'0 0.0
2016-May-27 01:33N 40°41' W 074°05'0 0.0
2016-May-27 00:33N 40°41' W 074°05'0 0.0
2016-May-26 23:33N 40°41' W 074°05'0 0.0
2016-May-26 22:33N 40°41' W 074°05'0 0.0
2016-May-26 21:33N 40°41' W 074°05'0 0.0
2016-May-26 20:33N 40°41' W 074°05'0 0.0
2016-May-26 19:33N 40°41' W 074°05'0 0.0
2016-May-26 18:33N 40°41' W 074°05'0 0.0
2016-May-26 17:33N 40°41' W 074°05'6 3.0
2016-May-26 15:33N 40°38' W 074°12'4 3.0
2016-May-26 14:16N 40°41' W 074°08'0 0.0
2016-May-26 13:28N 40°41' W 074°08'3 2.9
2016-May-26 12:33N 40°39' W 074°07'2 1.9
2016-May-26 11:33N 40°39' W 074°04'1 0.9
2016-May-26 10:33N 40°39' W 074°04'2 1.8
2016-May-26 09:33N 40°41' W 074°05'0 0.0
2016-May-26 08:33N 40°41' W 074°05'0 0.0
2016-May-26 07:33N 40°41' W 074°05'0 0.0
2016-May-26 06:33N 40°41' W 074°05'0 0.0
2016-May-26 05:33N 40°41' W 074°05'0 0.0
2016-May-26 04:33N 40°41' W 074°05'0 0.0
2016-May-26 03:33N 40°41' W 074°05'0 0.0
2016-May-26 02:32N 40°41' W 074°05'0 0.0
2016-May-26 01:33N 40°41' W 074°05'0 0.0
2016-May-26 00:33N 40°41' W 074°05'0 0.0
2016-May-25 23:33N 40°41' W 074°05'0 0.0
2016-May-25 22:33N 40°41' W 074°05'0 0.0
2016-May-25 21:33N 40°41' W 074°05'0 0.0
2016-May-25 20:33N 40°41' W 074°05'0 0.0
2016-May-25 19:33N 40°41' W 074°05'0 0.0
2016-May-25 18:33N 40°41' W 074°05'0 0.0
2016-May-25 17:33N 40°41' W 074°05'0 0.0
2016-May-25 16:33N 40°41' W 074°05'0 0.0
2016-May-25 15:33N 40°41' W 074°05'0 0.0
2016-May-25 14:33N 40°41' W 074°05'0 0.0
2016-May-25 13:32N 40°41' W 074°05'0 0.0
2016-May-25 12:33N 40°41' W 074°05'0 0.0
2016-May-25 11:33N 40°41' W 074°05'0 0.0
2016-May-25 10:31N 40°41' W 074°05'0 0.0
2016-May-25 09:34N 40°41' W 074°05'0 0.0
2016-May-25 08:31N 40°41' W 074°05'0 0.0
2016-May-25 07:33N 40°41' W 074°05'0 0.0
2016-May-25 06:34N 40°41' W 074°05'0 0.0
2016-May-25 05:33N 40°41' W 074°05'0 0.0
2016-May-25 04:34N 40°41' W 074°05'0 0.0
2016-May-25 03:33N 40°41' W 074°05'0 0.0
2016-May-25 02:34N 40°41' W 074°05'0 0.0
2016-May-25 01:34N 40°41' W 074°05'0 0.0
2016-May-25 00:34N 40°41' W 074°05'0 0.0
2016-May-24 23:33N 40°41' W 074°05'0 0.0
2016-May-24 22:33N 40°41' W 074°05'0 0.0
2016-May-24 21:33N 40°41' W 074°05'0 0.0
2016-May-24 20:34N 40°41' W 074°05'0 0.0
2016-May-24 19:33N 40°41' W 074°05'0 0.0
2016-May-24 18:34N 40°41' W 074°05'0 0.0
2016-May-24 17:33N 40°41' W 074°05'0 0.0
2016-May-24 16:33N 40°41' W 074°05'0 0.0
2016-May-24 15:34N 40°41' W 074°05'0 0.0
2016-May-24 14:34N 40°41' W 074°05'0 0.0
2016-May-24 13:33N 40°41' W 074°05'4 4.0
2016-May-24 12:34N 40°37' W 074°03'8 7.6
2016-May-24 11:34N 40°34' W 073°54'1 1.4
2016-May-24 10:32N 40°35' W 073°52'7 6.6
2016-May-24 09:33N 40°34' W 074°01'6 6.5
2016-May-24 08:33N 40°39' W 074°08'0 0.1
2016-May-24 07:33N 40°39' W 074°08'4 3.6
2016-May-24 06:33N 40°41' W 074°05'0 0.0
2016-May-24 05:33N 40°41' W 074°05'0 0.0
2016-May-24 04:33N 40°41' W 074°05'0 0.0
2016-May-24 03:33N 40°41' W 074°05'0 0.0
2016-May-24 02:33N 40°41' W 074°05'0 0.0
2016-May-24 01:33N 40°41' W 074°05'0 0.0
2016-May-24 00:33N 40°41' W 074°05'0 0.0
2016-May-23 23:33N 40°41' W 074°05'0 0.0
2016-May-23 22:33N 40°41' W 074°05'0 0.0
2016-May-23 21:33N 40°41' W 074°05'0 0.0
2016-May-23 20:33N 40°41' W 074°05'0 0.0
2016-May-23 19:33N 40°41' W 074°05'0 0.0
2016-May-23 18:33N 40°41' W 074°05'0 0.0
2016-May-23 17:33N 40°41' W 074°05'0 0.0
2016-May-23 16:33N 40°41' W 074°05'0 0.0
2016-May-23 15:33N 40°41' W 074°05'0 0.0
2016-May-23 14:33N 40°41' W 074°05'0 0.0
2016-May-23 13:33N 40°41' W 074°05'0 0.0
2016-May-23 12:33N 40°41' W 074°05'0 0.0
2016-May-23 11:33N 40°41' W 074°05'0 0.0
2016-May-23 10:33N 40°41' W 074°05'0 0.0
2016-May-23 09:33N 40°41' W 074°05'3 3.2
2016-May-23 08:33N 40°40' W 074°01'3 2.5
2016-May-23 07:33N 40°41' W 074°04'1 0.7
2016-May-23 06:33N 40°41' W 074°05'0 0.0
2016-May-23 05:33N 40°41' W 074°05'0 0.0
2016-May-23 04:33N 40°41' W 074°05'0 0.0
2016-May-23 03:33N 40°41' W 074°05'0 0.0
2016-May-23 02:33N 40°41' W 074°05'0 0.0
2016-May-23 01:33N 40°41' W 074°05'0 0.0
2016-May-23 00:33N 40°41' W 074°05'0 0.0
2016-May-22 23:33N 40°41' W 074°05'0 0.0
2016-May-22 22:33N 40°41' W 074°05'0 0.0
2016-May-22 20:30N 40°41' W 074°05'0 0.0
2016-May-22 19:33N 40°41' W 074°05'0 0.0
2016-May-22 18:33N 40°41' W 074°05'0 0.0
2016-May-22 17:33N 40°41' W 074°05'1 1.2
2016-May-22 16:33N 40°41' W 074°03'7 2.2
2016-May-22 13:25N 40°46' W 073°57'7 8.2
2016-May-22 12:33N 40°41' W 074°04'1 1.1
2016-May-22 11:33N 40°41' W 074°05'0 0.0
2016-May-22 10:33N 40°41' W 074°05'0 0.0
2016-May-22 09:33N 40°41' W 074°05'0 0.0
2016-May-22 08:33N 40°41' W 074°05'0 0.0
2016-May-22 07:33N 40°41' W 074°05'0 0.0
2016-May-22 06:33N 40°41' W 074°05'0 0.2
2016-May-22 05:33N 40°41' W 074°04'6 5.5
2016-May-22 04:31N 40°39' W 074°11'0 0.2
2016-May-22 03:10N 40°38' W 074°12'4 6.1
2016-May-22 02:33N 40°39' W 074°07'3 2.8
2016-May-22 01:33N 40°41' W 074°04'0 0.2
2016-May-22 00:33N 40°41' W 074°05'0 0.0
2016-May-21 23:33N 40°41' W 074°05'0 0.0
2016-May-21 22:33N 40°41' W 074°05'0 0.0
2016-May-21 21:33N 40°41' W 074°05'0 0.0
2016-May-21 20:33N 40°41' W 074°05'0 0.0
2016-May-21 19:33N 40°41' W 074°05'0 0.0
2016-May-21 18:33N 40°41' W 074°05'0 0.0
2016-May-21 17:33N 40°41' W 074°05'0 0.0
2016-May-21 16:30N 40°41' W 074°05'0 0.0
2016-May-21 15:33N 40°41' W 074°05'0 0.0
2016-May-21 14:33N 40°41' W 074°05'0 0.0
2016-May-21 13:33N 40°41' W 074°05'0 0.0
2016-May-21 12:27N 40°41' W 074°05'0 0.0
2016-May-21 11:33N 40°41' W 074°05'0 0.0
2016-May-21 10:33N 40°41' W 074°05'0 0.0
2016-May-21 09:34N 40°41' W 074°05'0 0.0
2016-May-21 08:33N 40°41' W 074°05'0 0.0
2016-May-21 07:33N 40°41' W 074°05'0 0.0
2016-May-21 06:33N 40°41' W 074°05'0 0.0
2016-May-21 05:33N 40°41' W 074°05'0 0.0
2016-May-21 04:33N 40°41' W 074°05'0 0.0
2016-May-21 03:33N 40°41' W 074°05'0 0.0
2016-May-21 02:33N 40°41' W 074°05'0 0.2
2016-May-21 01:33N 40°41' W 074°04'3 3.2
2016-May-21 00:33N 40°40' W 074°01'3 3.1
2016-May-20 23:33N 40°43' W 073°59'2 2.3
2016-May-20 22:31N 40°44' W 073°57'6 6.7
2016-May-20 21:33N 40°41' W 074°04'1 1.0
2016-May-20 20:33N 40°41' W 074°05'4 4.0
2016-May-20 19:33N 40°39' W 074°09'2 0.8
2016-May-20 16:33N 40°38' W 074°12'5 4.6
2016-May-20 15:33N 40°39' W 074°06'1 0.6
2016-May-20 14:33N 40°39' W 074°05'2 1.9
2016-May-20 13:33N 40°41' W 074°05'5 4.7
2016-May-20 12:33N 40°37' W 074°03'8 7.6
2016-May-20 11:33N 40°34' W 073°53'0 0.3
2016-May-20 10:32N 40°35' W 073°53'7 6.6
2016-May-20 09:33N 40°35' W 074°01'5 5.3
2016-May-20 08:33N 40°40' W 074°01'0 0.0
2016-May-20 07:33N 40°40' W 074°01'0 0.0
2016-May-20 06:33N 40°40' W 074°01'3 2.6
2016-May-20 05:33N 40°41' W 074°04'3 2.8
2016-May-20 04:33N 40°40' W 074°01'5 5.2
2016-May-20 03:33N 40°44' W 073°57'3 0.8
2016-May-20 00:09N 40°47' W 073°56'3 4.3
2016-May-19 23:33N 40°44' W 073°57'1 0.6
2016-May-19 22:33N 40°44' W 073°57'6 6.1
2016-May-19 21:33N 40°41' W 074°04'1 0.8
2016-May-19 20:33N 40°41' W 074°05'0 0.0
2016-May-19 19:33N 40°41' W 074°05'0 0.0
2016-May-19 18:33N 40°41' W 074°05'0 0.0
2016-May-19 17:33N 40°41' W 074°05'0 0.3
2016-May-19 16:33N 40°41' W 074°04'3 2.7
2016-May-19 15:33N 40°39' W 074°02'5 4.8
2016-May-19 14:33N 40°34' W 074°01'6 6.0
2016-May-19 13:29N 40°35' W 073°52'  
Track history (hours):
 
Tides and Currents Weather Stations Pressure Air Temp Water Temp Dewpoint Dewpoint Depression Visibility Wind Speed Wind Dir Waves Ship Positions

MV Sea Wolf

Owner: SEA WOLF MARINE TOWING & TRANSPORTATION, Bayonne, NJ. More information available from US FCC via Universal Licensing System and Coast Guard Vessel Documentation Center.

Last reported at 2016-May-29 13:34 UTC. Time now 2016-May-29 13:32 UTC.
Position N 40°41' W 074°05'.

Length 66 m; draft 10 m.

MMSI: 367002350.

Date/timePositionNaut miles runAvg speedWind from/ knotsBaromVisibWave heightAir tempDewpointWater temp
2016-May-29 13:34N 40°41' W 074°05'0 0.0
2016-May-29 12:34N 40°41' W 074°05'0 0.0
2016-May-29 11:33N 40°41' W 074°05'0 0.0
2016-May-29 10:32N 40°41' W 074°05'0 0.0
2016-May-29 09:33N 40°41' W 074°05'0 0.0
2016-May-29 08:31N 40°41' W 074°05'0 0.0
2016-May-29 07:34N 40°41' W 074°05'0 0.0
2016-May-29 06:34N 40°41' W 074°05'0 0.4
2016-May-29 05:33N 40°41' W 074°04'5 5.5
2016-May-29 04:34N 40°39' W 074°11'1 0.8
2016-May-29 03:12N 40°38' W 074°12'5 7.3
2016-May-29 02:33N 40°39' W 074°06'4 4.0
2016-May-29 01:34N 40°40' W 074°01'5 5.3
2016-May-29 00:33N 40°44' W 073°57'1 1.5
2016-May-28 23:34N 40°43' W 073°58'4 4.4
2016-May-28 22:33N 40°41' W 074°03'1 1.3
2016-May-28 21:33N 40°41' W 074°05'0 0.0
2016-May-28 20:33N 40°41' W 074°05'0 0.0
2016-May-28 19:34N 40°41' W 074°05'0 0.0
2016-May-28 18:34N 40°41' W 074°05'0 0.0
2016-May-28 17:33N 40°41' W 074°05'0 0.0
2016-May-28 16:33N 40°41' W 074°05'0 0.0
2016-May-28 15:34N 40°41' W 074°05'0 0.0
2016-May-28 14:33N 40°41' W 074°05'0 0.0
2016-May-28 13:34N 40°41' W 074°05'0 0.0
2016-May-28 12:33N 40°41' W 074°05'0 0.0
2016-May-28 11:33N 40°41' W 074°05'0 0.0
2016-May-28 10:33N 40°41' W 074°05'0 0.0
2016-May-28 09:33N 40°41' W 074°05'0 0.0
2016-May-28 08:33N 40°41' W 074°05'0 0.0
2016-May-28 07:33N 40°41' W 074°05'0 0.0
2016-May-28 06:33N 40°41' W 074°05'0 0.0
2016-May-28 05:33N 40°41' W 074°05'3 3.2
2016-May-28 04:33N 40°42' W 074°00'4 3.7
2016-May-28 03:33N 40°44' W 073°57'5 5.4
2016-May-28 02:33N 40°40' W 074°01'3 2.6
2016-May-28 01:33N 40°41' W 074°04'0 0.2
2016-May-28 00:33N 40°41' W 074°05'0 0.0
2016-May-27 23:33N 40°41' W 074°05'0 0.0
2016-May-27 22:33N 40°41' W 074°05'0 0.0
2016-May-27 21:33N 40°41' W 074°05'0 0.0
2016-May-27 20:33N 40°41' W 074°05'0 0.0
2016-May-27 19:33N 40°41' W 074°05'0 0.0
2016-May-27 18:33N 40°41' W 074°05'0 0.0
2016-May-27 17:33N 40°41' W 074°05'0 0.0
2016-May-27 16:33N 40°41' W 074°05'0 0.0
2016-May-27 15:33N 40°41' W 074°05'3 2.6
2016-May-27 14:33N 40°40' W 074°02'2 2.1
2016-May-27 13:33N 40°42' W 074°00'4 3.7
2016-May-27 12:31N 40°44' W 073°57'4 4.4
2016-May-27 11:33N 40°42' W 074°01'3 2.7
2016-May-27 10:33N 40°41' W 074°05'0 0.0
2016-May-27 09:33N 40°41' W 074°05'0 0.0
2016-May-27 08:33N 40°41' W 074°05'0 0.0
2016-May-27 07:33N 40°41' W 074°05'0 0.0
2016-May-27 06:33N 40°41' W 074°05'0 0.0
2016-May-27 05:33N 40°41' W 074°05'0 0.0
2016-May-27 04:33N 40°41' W 074°05'0 0.0
2016-May-27 03:33N 40°41' W 074°05'0 0.0
2016-May-27 02:33N 40°41' W 074°05'0 0.0
2016-May-27 01:33N 40°41' W 074°05'0 0.0
2016-May-27 00:33N 40°41' W 074°05'0 0.0
2016-May-26 23:33N 40°41' W 074°05'0 0.0
2016-May-26 22:33N 40°41' W 074°05'0 0.0
2016-May-26 21:33N 40°41' W 074°05'0 0.0
2016-May-26 20:33N 40°41' W 074°05'0 0.0
2016-May-26 19:33N 40°41' W 074°05'0 0.0
2016-May-26 18:33N 40°41' W 074°05'0 0.0
2016-May-26 17:33N 40°41' W 074°05'6 3.0
2016-May-26 15:33N 40°38' W 074°12'4 3.0
2016-May-26 14:16N 40°41' W 074°08'0 0.0
2016-May-26 13:28N 40°41' W 074°08'3 2.9
2016-May-26 12:33N 40°39' W 074°07'2 1.9
2016-May-26 11:33N 40°39' W 074°04'1 0.9
2016-May-26 10:33N 40°39' W 074°04'2 1.8
2016-May-26 09:33N 40°41' W 074°05'0 0.0
2016-May-26 08:33N 40°41' W 074°05'0 0.0
2016-May-26 07:33N 40°41' W 074°05'0 0.0
2016-May-26 06:33N 40°41' W 074°05'0 0.0
2016-May-26 05:33N 40°41' W 074°05'0 0.0
2016-May-26 04:33N 40°41' W 074°05'0 0.0
2016-May-26 03:33N 40°41' W 074°05'0 0.0
2016-May-26 02:32N 40°41' W 074°05'0 0.0
2016-May-26 01:33N 40°41' W 074°05'0 0.0
2016-May-26 00:33N 40°41' W 074°05'0 0.0
2016-May-25 23:33N 40°41' W 074°05'0 0.0
2016-May-25 22:33N 40°41' W 074°05'0 0.0
2016-May-25 21:33N 40°41' W 074°05'0 0.0
2016-May-25 20:33N 40°41' W 074°05'0 0.0
2016-May-25 19:33N 40°41' W 074°05'0 0.0
2016-May-25 18:33N 40°41' W 074°05'0 0.0
2016-May-25 17:33N 40°41' W 074°05'0 0.0
2016-May-25 16:33N 40°41' W 074°05'0 0.0
2016-May-25 15:33N 40°41' W 074°05'0 0.0
2016-May-25 14:33N 40°41' W 074°05'0 0.0
2016-May-25 13:32N 40°41' W 074°05'0 0.0
2016-May-25 12:33N 40°41' W 074°05'0 0.0
2016-May-25 11:33N 40°41' W 074°05'0 0.0
2016-May-25 10:31N 40°41' W 074°05'0 0.0
2016-May-25 09:34N 40°41' W 074°05'0 0.0
2016-May-25 08:31N 40°41' W 074°05'0 0.0
2016-May-25 07:33N 40°41' W 074°05'0 0.0
2016-May-25 06:34N 40°41' W 074°05'0 0.0
2016-May-25 05:33N 40°41' W 074°05'0 0.0
2016-May-25 04:34N 40°41' W 074°05'0 0.0
2016-May-25 03:33N 40°41' W 074°05'0 0.0
2016-May-25 02:34N 40°41' W 074°05'0 0.0
2016-May-25 01:34N 40°41' W 074°05'0 0.0
2016-May-25 00:34N 40°41' W 074°05'0 0.0
2016-May-24 23:33N 40°41' W 074°05'0 0.0
2016-May-24 22:33N 40°41' W 074°05'0 0.0
2016-May-24 21:33N 40°41' W 074°05'0 0.0
2016-May-24 20:34N 40°41' W 074°05'0 0.0
2016-May-24 19:33N 40°41' W 074°05'0 0.0
2016-May-24 18:34N 40°41' W 074°05'0 0.0
2016-May-24 17:33N 40°41' W 074°05'0 0.0
2016-May-24 16:33N 40°41' W 074°05'0 0.0
2016-May-24 15:34N 40°41' W 074°05'0 0.0
2016-May-24 14:34N 40°41' W 074°05'0 0.0
2016-May-24 13:33N 40°41' W 074°05'4 4.0
2016-May-24 12:34N 40°37' W 074°03'8 7.6
2016-May-24 11:34N 40°34' W 073°54'1 1.4
2016-May-24 10:32N 40°35' W 073°52'7 6.6
2016-May-24 09:33N 40°34' W 074°01'6 6.5
2016-May-24 08:33N 40°39' W 074°08'0 0.1
2016-May-24 07:33N 40°39' W 074°08'4 3.6
2016-May-24 06:33N 40°41' W 074°05'0 0.0
2016-May-24 05:33N 40°41' W 074°05'0 0.0
2016-May-24 04:33N 40°41' W 074°05'0 0.0
2016-May-24 03:33N 40°41' W 074°05'0 0.0
2016-May-24 02:33N 40°41' W 074°05'0 0.0
2016-May-24 01:33N 40°41' W 074°05'0 0.0
2016-May-24 00:33N 40°41' W 074°05'0 0.0
2016-May-23 23:33N 40°41' W 074°05'0 0.0
2016-May-23 22:33N 40°41' W 074°05'0 0.0
2016-May-23 21:33N 40°41' W 074°05'0 0.0
2016-May-23 20:33N 40°41' W 074°05'0 0.0
2016-May-23 19:33N 40°41' W 074°05'0 0.0
2016-May-23 18:33N 40°41' W 074°05'0 0.0
2016-May-23 17:33N 40°41' W 074°05'0 0.0
2016-May-23 16:33N 40°41' W 074°05'0 0.0
2016-May-23 15:33N 40°41' W 074°05'0 0.0
2016-May-23 14:33N 40°41' W 074°05'0 0.0
2016-May-23 13:33N 40°41' W 074°05'0 0.0
2016-May-23 12:33N 40°41' W 074°05'0 0.0
2016-May-23 11:33N 40°41' W 074°05'0 0.0
2016-May-23 10:33N 40°41' W 074°05'0 0.0
2016-May-23 09:33N 40°41' W 074°05'3 3.2
2016-May-23 08:33N 40°40' W 074°01'3 2.5
2016-May-23 07:33N 40°41' W 074°04'1 0.7
2016-May-23 06:33N 40°41' W 074°05'0 0.0
2016-May-23 05:33N 40°41' W 074°05'0 0.0
2016-May-23 04:33N 40°41' W 074°05'0 0.0
2016-May-23 03:33N 40°41' W 074°05'0 0.0
2016-May-23 02:33N 40°41' W 074°05'0 0.0
2016-May-23 01:33N 40°41' W 074°05'0 0.0
2016-May-23 00:33N 40°41' W 074°05'0 0.0
2016-May-22 23:33N 40°41' W 074°05'0 0.0
2016-May-22 22:33N 40°41' W 074°05'0 0.0
2016-May-22 20:30N 40°41' W 074°05'0 0.0
2016-May-22 19:33N 40°41' W 074°05'0 0.0
2016-May-22 18:33N 40°41' W 074°05'0 0.0
2016-May-22 17:33N 40°41' W 074°05'1 1.2
2016-May-22 16:33N 40°41' W 074°03'7 2.2
2016-May-22 13:25N 40°46' W 073°57'7 8.2
2016-May-22 12:33N 40°41' W 074°04'1 1.1
2016-May-22 11:33N 40°41' W 074°05'0 0.0
2016-May-22 10:33N 40°41' W 074°05'0 0.0
2016-May-22 09:33N 40°41' W 074°05'0 0.0
2016-May-22 08:33N 40°41' W 074°05'0 0.0
2016-May-22 07:33N 40°41' W 074°05'0 0.0
2016-May-22 06:33N 40°41' W 074°05'0 0.2
2016-May-22 05:33N 40°41' W 074°04'6 5.5
2016-May-22 04:31N 40°39' W 074°11'0 0.2
2016-May-22 03:10N 40°38' W 074°12'4 6.1
2016-May-22 02:33N 40°39' W 074°07'3 2.8
2016-May-22 01:33N 40°41' W 074°04'0 0.2
2016-May-22 00:33N 40°41' W 074°05'0 0.0
2016-May-21 23:33N 40°41' W 074°05'0 0.0
2016-May-21 22:33N 40°41' W 074°05'0 0.0
2016-May-21 21:33N 40°41' W 074°05'0 0.0
2016-May-21 20:33N 40°41' W 074°05'0 0.0
2016-May-21 19:33N 40°41' W 074°05'0 0.0
2016-May-21 18:33N 40°41' W 074°05'0 0.0
2016-May-21 17:33N 40°41' W 074°05'0 0.0
2016-May-21 16:30N 40°41' W 074°05'0 0.0
2016-May-21 15:33N 40°41' W 074°05'0 0.0
2016-May-21 14:33N 40°41' W 074°05'0 0.0
2016-May-21 13:33N 40°41' W 074°05'0 0.0
2016-May-21 12:27N 40°41' W 074°05'0 0.0
2016-May-21 11:33N 40°41' W 074°05'0 0.0
2016-May-21 10:33N 40°41' W 074°05'0 0.0
2016-May-21 09:34N 40°41' W 074°05'0 0.0
2016-May-21 08:33N 40°41' W 074°05'0 0.0
2016-May-21 07:33N 40°41' W 074°05'0 0.0
2016-May-21 06:33N 40°41' W 074°05'0 0.0
2016-May-21 05:33N 40°41' W 074°05'0 0.0
2016-May-21 04:33N 40°41' W 074°05'0 0.0
2016-May-21 03:33N 40°41' W 074°05'0 0.0
2016-May-21 02:33N 40°41' W 074°05'0 0.2
2016-May-21 01:33N 40°41' W 074°04'3 3.2
2016-May-21 00:33N 40°40' W 074°01'3 3.1
2016-May-20 23:33N 40°43' W 073°59'2 2.3
2016-May-20 22:31N 40°44' W 073°57'6 6.7
2016-May-20 21:33N 40°41' W 074°04'1 1.0
2016-May-20 20:33N 40°41' W 074°05'4 4.0
2016-May-20 19:33N 40°39' W 074°09'2 0.8
2016-May-20 16:33N 40°38' W 074°12'5 4.6
2016-May-20 15:33N 40°39' W 074°06'1 0.6
2016-May-20 14:33N 40°39' W 074°05'2 1.9
2016-May-20 13:33N 40°41' W 074°05'5 4.7
2016-May-20 12:33N 40°37' W 074°03'8 7.6
2016-May-20 11:33N 40°34' W 073°53'0 0.3
2016-May-20 10:32N 40°35' W 073°53'7 6.6
2016-May-20 09:33N 40°35' W 074°01'5 5.3
2016-May-20 08:33N 40°40' W 074°01'0 0.0
2016-May-20 07:33N 40°40' W 074°01'0 0.0
2016-May-20 06:33N 40°40' W 074°01'3 2.6
2016-May-20 05:33N 40°41' W 074°04'3 2.8
2016-May-20 04:33N 40°40' W 074°01'5 5.2
2016-May-20 03:33N 40°44' W 073°57'3 0.8
2016-May-20 00:09N 40°47' W 073°56'3 4.3
2016-May-19 23:33N 40°44' W 073°57'1 0.6
2016-May-19 22:33N 40°44' W 073°57'6 6.1
2016-May-19 21:33N 40°41' W 074°04'1 0.8
2016-May-19 20:33N 40°41' W 074°05'0 0.0
2016-May-19 19:33N 40°41' W 074°05'0 0.0
2016-May-19 18:33N 40°41' W 074°05'0 0.0
2016-May-19 17:33N 40°41' W 074°05'0 0.3
2016-May-19 16:33N 40°41' W 074°04'3 2.7
2016-May-19 15:33N 40°39' W 074°02'5 4.8
2016-May-19 14:33N 40°34' W 074°01'6 6.0
2016-May-19 13:29N 40°35' W 073°52'  

Dump ship's entire track history